x

South Hatteras - 225 South Of Cape Hatteras (41002) Wave Buoy

4:50 - Mon 27th Feb 2017 All times are EST. -5 hours from GMT.

  • Sig Wave height 4.3ft
  • Swell Direction
  • Peak Period 9s
  • Average Period 5s
  • Wind
    16mph, 18mph gusts
  • Sea Temp 70°f
  • Ar Temp 68°f
  • Sea Pressure 1027.9mb
  • South Hatteras - 225 South Of Cape Hatteras
  • South Hatteras - 225 South Of Cape Hatteras

More Historic Weather Station data

Upgrade to MSW Pro to gain access to the past 30 days of data for over 8000 Wavebouys and Weather Stations around the globe.

Join Pro

Comparision Forecast

View Surf forecast
   
Seg 02/27 4:50 4.5ft 9s 5s 16 18 mph 1027.9mb 70f 68f
3:50 4ft 8s 5s 16 18 mph 1027.6mb 70f 68f
2:50 4ft 8s 5s 13 18 mph 1028mb 70f 67f
1:50 4ft 8s 5s 16 20 mph 1027.9mb 70f 67f
12:50 4ft 8s 5s 16 20 mph 1028.7mb 70f 67f
11:50 4ft 8s 5s 16 20 mph 1029.2mb 70f 67f
10:50 4.5ft 8s 5s 16 18 mph 1029.7mb 70f 66f
9:50 4.5ft 8s 6s 13 18 mph 1029.6mb 70f 66f
8:50 4ft 8s 5s 13 20 mph 1029mb 70f 66f
7:50 4.5ft 8s 6s 16 18 mph 1028.4mb 70f 65f
6:50 4.5ft 8s 6s 13 16 mph 1027.8mb 70f 65f
5:50 4.5ft 8s 6s 13 18 mph 1027.4mb 70f 65f
4:50 4.5ft 8s 6s 13 18 mph 1027mb 71f 64f
3:50 5ft 9s 6s 9 13 mph 1026.7mb 71f 64f
2:50 5ft 7s 6s 11 16 mph 1026.4mb 71f 64f
1:50 5ft 6s 6s 11 13 mph 1026.5mb 71f 64f
12:50 5ft 7s 6s 11 16 mph 1026.3mb 71f 64f
Dom 02/26 11:50 5ft 7s 6s 11 16 mph 1025.9mb 71f 64f
10:50 6ft 7s 6s 11 13 mph 1025.8mb 71f 64f
9:50 6ft 8s 6s 11 16 mph 1025.2mb 71f 64f
8:50 5.5ft 8s 6s 9 13 mph 1024.8mb 71f 65f
7:50 5ft 7s 6s 11 13 mph 1024mb 71f 65f
6:50 5ft 7s 6s 11 13 mph 1023.3mb 71f 66f
5:50 6ft 7s 6s 11 16 mph 1022.3mb 71f 67f
4:50 6ft 7s 6s 13 16 mph 1021.3mb 71f 67f
3:50 6.5ft 7s 6s 11 16 mph 1020.4mb 71f 68f
2:50 7ft 7s 6s 16 18 mph 1019.9mb 71f 68f
1:50 6ft 8s 6s 16 20 mph 1019.4mb 71f 68f
12:50 7ft 7s 6s 16 20 mph 1019.5mb 71f 69f
11:50 7ft 8s 6s 16 18 mph 1019.4mb 71f 69f
10:50 7.5ft 8s 6s 13 18 mph 1019.2mb 71f 69f
9:50 8ft 8s 7s 18 20 mph 1018.6mb 71f 70f
8:50 7.5ft 7s 6s 16 20 mph 1017.9mb 71f 70f
7:50 7ft 7s 6s 11 13 mph 1016.6mb 71f 70f
6:50 7.5ft 9s 6s 20 22 mph 1015.4mb 71f 71f
5:50 6ft 9s 6s 13 16 mph 1014.6mb 71f 70f
4:50 6ft 10s 6s 18 20 mph 1012.9mb 71f 71f
3:50 6ft 10s 6s 18 22 mph 1012.4mb 71f 72f
2:50 6ft 9s 6s 18 22 mph 1012.2mb 71f 72f
1:50 6ft 9s 6s 18 22 mph 1012mb 71f 72f
12:50 6.5ft 9s 6s 18 22 mph 1011.8mb 71f 72f
Sáb 02/25 11:50 6ft 9s 6s 18 20 mph 1011.6mb 71f 72f
10:50 6.5ft 9s 7s 18 22 mph 1011.1mb 71f 71f
9:50 6ft 10s 7s 18 22 mph 1011.5mb 71f 71f
8:50 6ft 9s 7s 16 22 mph 1010.8mb 71f 72f
7:50 6.5ft 10s 7s 16 18 mph 1010.6mb 71f 72f
6:50 7ft 9s 8s 16 18 mph 1010.2mb 71f 72f
5:50 7ft 10s 8s 13 16 mph 1009.9mb 71f 71f
4:50 7ft 10s 8s 16 20 mph 1009.7mb 71f 69f
3:50 7ft 9s 8s 13 16 mph 1009.5mb 71f 72f
2:50 7ft 10s 8s 13 16 mph 1009.3mb 71f 71f
1:50 8ft 10s 8s 9 13 mph 1009.5mb 71f 71f
12:50 8ft 10s 8s 9 11 mph 1009.9mb 71f 71f
11:50 7.5ft 10s 8s 7 9 mph 1010.3mb 71f 70f
10:50 8ft 10s 8s 9 11 mph 1010.5mb 71f 70f
9:50 8.5ft 10s 8s 13 16 mph 1009.9mb 70f 70f
8:50 9ft 10s 8s 9 11 mph 1009.1mb 70f 70f
7:50 9ft 10s 8s 9 11 mph 1008.2mb 70f 70f
6:50 9.5ft 10s 8s 4 7 mph 1007.4mb 70f 69f
5:50 10ft 10s 8s 7 9 mph 1007mb 70f 69f
4:50 10ft 10s 8s 11 16 mph 1006.8mb 70f 69f
3:50 10ft 10s 8s 11 13 mph 1006.3mb 70f 69f
2:50 9ft 11s 8s 9 13 mph 1006.7mb 70f 69f
1:50 9.5ft 10s 8s 9 11 mph 1006.9mb 70f 69f
12:50 10ft 10s 8s 7 9 mph 1007.4mb 70f 69f
Sex 02/24 11:50 9.5ft 11s 7s 7
mph
1007.7mb 70f 69f
10:50 10ft 10s 8s 4 7 mph 1008mb 70f 69f
9:50 9.5ft 10s 8s  -  2 mph 1007.8mb 70f 68f
8:50 11ft 11s 8s 4 7 mph 1007.8mb 70f 68f
7:50 10ft 11s 8s 7 9 mph 1007.4mb 70f 69f
6:50 10ft 9s 8s 9 11 mph 1007.2mb 70f 69f
5:50 10ft 11s 7s 9 11 mph 1006.9mb 70f 69f
4:50 12ft 10s 8s 11 13 mph 1006.6mb 70f 70f
3:50 11ft 11s 8s 13 16 mph 1006.5mb 70f 70f
2:50 12.5ft 11s 8s 13 18 mph 1006.2mb 70f 69f
1:50 12ft 10s 8s 13 18 mph 1006.2mb 70f 69f
12:50 12.5ft 11s 8s 13 16 mph 1006.6mb 70f 70f
11:50 11.5ft 8s 7s 13 20 mph 1007.1mb 70f 68f
10:50 13ft 10s 7s 20 25 mph 1007.2mb 70f 69f
9:50 13ft 10s 7s 27 34 mph 1007.3mb 70f 69f
8:50 12.5ft 9s 7s 27 31 mph 1007.3mb 70f 68f
7:50 13ft 9s 7s 29 34 mph 1007.1mb 70f 68f
6:50 12.5ft 10s 7s 29 36 mph 1007.1mb 70f 69f
5:50 12.5ft 10s 7s 27 29 mph 1007.6mb 70f 69f
4:50 11ft 9s 7s 27 31 mph 1007.7mb 69f 69f
3:50 12ft 8s 7s 27 34 mph 1007.3mb 69f 69f
2:50 11ft 8s 6s 25 31 mph 1007.8mb 69f 68f
1:50 13ft 9s 7s 22 29 mph 1008.7mb 69f 69f
12:50 12ft 8s 7s 29 34 mph 1008.1mb 69f 69f
Qui 02/23 11:50 12ft 9s 7s 29 38 mph 1008.4mb 69f 69f